sensor_id;sensor_type;location;lat;lon;timestamp;P1;durP1;ratioP1;P2;durP2;ratioP2
75297;SDS011;63896;45.990;18.688;2022-10-10T00:00:20;4.78;;;2.40;;
75297;SDS011;63896;45.990;18.688;2022-10-10T00:03:23;6.50;;;1.90;;
75297;SDS011;63896;45.990;18.688;2022-10-10T00:06:27;4.97;;;2.10;;
75297;SDS011;63896;45.990;18.688;2022-10-10T00:09:34;3.72;;;1.95;;
75297;SDS011;63896;45.990;18.688;2022-10-10T00:12:37;5.18;;;1.75;;
75297;SDS011;63896;45.990;18.688;2022-10-10T00:15:40;3.30;;;2.08;;
75297;SDS011;63896;45.990;18.688;2022-10-10T00:18:48;7.33;;;2.00;;
75297;SDS011;63896;45.990;18.688;2022-10-10T00:21:51;4.82;;;2.15;;
75297;SDS011;63896;45.990;18.688;2022-10-10T00:24:54;4.82;;;1.75;;
75297;SDS011;63896;45.990;18.688;2022-10-10T00:27:59;4.97;;;2.10;;
75297;SDS011;63896;45.990;18.688;2022-10-10T00:31:04;3.90;;;1.88;;
75297;SDS011;63896;45.990;18.688;2022-10-10T00:34:10;3.10;;;1.73;;
75297;SDS011;63896;45.990;18.688;2022-10-10T00:37:14;3.20;;;1.85;;
75297;SDS011;63896;45.990;18.688;2022-10-10T00:40:16;2.60;;;2.13;;
75297;SDS011;63896;45.990;18.688;2022-10-10T00:43:21;5.22;;;2.05;;
75297;SDS011;63896;45.990;18.688;2022-10-10T00:46:24;5.03;;;2.13;;
75297;SDS011;63896;45.990;18.688;2022-10-10T00:49:27;5.90;;;1.77;;
75297;SDS011;63896;45.990;18.688;2022-10-10T00:52:31;2.92;;;1.90;;
75297;SDS011;63896;45.990;18.688;2022-10-10T00:55:34;4.47;;;1.75;;
75297;SDS011;63896;45.990;18.688;2022-10-10T00:58:38;2.47;;;1.80;;
75297;SDS011;63896;45.990;18.688;2022-10-10T01:01:44;3.22;;;1.98;;
75297;SDS011;63896;45.990;18.688;2022-10-10T01:04:47;3.90;;;1.70;;
75297;SDS011;63896;45.990;18.688;2022-10-10T01:07:50;6.88;;;1.80;;
75297;SDS011;63896;45.990;18.688;2022-10-10T01:17:52;4.22;;;1.95;;
75297;SDS011;63896;45.990;18.688;2022-10-10T01:31:25;1.95;;;1.42;;
75297;SDS011;63896;45.990;18.688;2022-10-10T01:41:25;6.45;;;1.75;;
75297;SDS011;63896;45.990;18.688;2022-10-10T01:44:34;3.65;;;1.60;;
75297;SDS011;63896;45.990;18.688;2022-10-10T01:47:37;3.10;;;1.90;;
75297;SDS011;63896;45.990;18.688;2022-10-10T01:50:48;4.88;;;2.13;;
75297;SDS011;63896;45.990;18.688;2022-10-10T01:54:19;5.77;;;2.00;;
75297;SDS011;63896;45.990;18.688;2022-10-10T01:57:30;3.47;;;1.92;;
75297;SDS011;63896;45.990;18.688;2022-10-10T02:00:47;2.60;;;1.88;;
75297;SDS011;63896;45.990;18.688;2022-10-10T02:04:03;2.60;;;1.70;;
75297;SDS011;63896;45.990;18.688;2022-10-10T02:07:14;3.90;;;1.80;;
75297;SDS011;63896;45.990;18.688;2022-10-10T02:10:25;2.97;;;1.83;;
75297;SDS011;63896;45.990;18.688;2022-10-10T02:14:07;3.58;;;1.65;;
75297;SDS011;63896;45.990;18.688;2022-10-10T02:17:04;5.82;;;1.73;;
75297;SDS011;63896;45.990;18.688;2022-10-10T02:20:12;3.70;;;1.77;;
75297;SDS011;63896;45.990;18.688;2022-10-10T02:23:18;3.38;;;1.60;;
75297;SDS011;63896;45.990;18.688;2022-10-10T02:26:23;5.70;;;2.00;;
75297;SDS011;63896;45.990;18.688;2022-10-10T02:29:30;3.33;;;1.60;;
75297;SDS011;63896;45.990;18.688;2022-10-10T02:32:40;2.28;;;1.58;;
75297;SDS011;63896;45.990;18.688;2022-10-10T02:35:48;4.15;;;1.80;;
75297;SDS011;63896;45.990;18.688;2022-10-10T02:38:52;4.50;;;2.17;;
75297;SDS011;63896;45.990;18.688;2022-10-10T02:41:57;2.70;;;1.80;;
75297;SDS011;63896;45.990;18.688;2022-10-10T02:45:00;3.47;;;1.85;;
75297;SDS011;63896;45.990;18.688;2022-10-10T02:48:04;3.42;;;1.75;;
75297;SDS011;63896;45.990;18.688;2022-10-10T02:51:07;3.05;;;1.90;;
75297;SDS011;63896;45.990;18.688;2022-10-10T02:54:11;3.70;;;2.33;;
75297;SDS011;63896;45.990;18.688;2022-10-10T02:57:14;5.67;;;1.80;;
75297;SDS011;63896;45.990;18.688;2022-10-10T03:00:16;5.22;;;1.90;;
75297;SDS011;63896;45.990;18.688;2022-10-10T03:03:20;3.97;;;2.03;;
75297;SDS011;63896;45.990;18.688;2022-10-10T03:06:23;3.20;;;1.70;;
75297;SDS011;63896;45.990;18.688;2022-10-10T03:09:26;5.65;;;2.03;;
75297;SDS011;63896;45.990;18.688;2022-10-10T03:12:29;2.47;;;1.90;;
75297;SDS011;63896;45.990;18.688;2022-10-10T03:15:32;3.35;;;2.10;;
75297;SDS011;63896;45.990;18.688;2022-10-10T03:18:35;6.70;;;2.45;;
75297;SDS011;63896;45.990;18.688;2022-10-10T03:21:38;4.05;;;2.03;;
75297;SDS011;63896;45.990;18.688;2022-10-10T03:24:40;4.25;;;2.10;;
75297;SDS011;63896;45.990;18.688;2022-10-10T03:27:43;4.70;;;2.20;;
75297;SDS011;63896;45.990;18.688;2022-10-10T03:30:46;5.50;;;2.20;;
75297;SDS011;63896;45.990;18.688;2022-10-10T03:33:49;4.13;;;2.58;;
75297;SDS011;63896;45.990;18.688;2022-10-10T03:36:52;6.25;;;2.50;;
75297;SDS011;63896;45.990;18.688;2022-10-10T03:39:55;5.50;;;2.40;;
75297;SDS011;63896;45.990;18.688;2022-10-10T03:42:58;3.93;;;2.17;;
75297;SDS011;63896;45.990;18.688;2022-10-10T03:46:01;3.50;;;1.88;;
75297;SDS011;63896;45.990;18.688;2022-10-10T03:49:04;3.28;;;2.35;;
75297;SDS011;63896;45.990;18.688;2022-10-10T03:52:06;3.35;;;1.90;;
75297;SDS011;63896;45.990;18.688;2022-10-10T03:55:09;6.65;;;3.47;;
75297;SDS011;63896;45.990;18.688;2022-10-10T03:58:12;4.43;;;2.30;;
75297;SDS011;63896;45.990;18.688;2022-10-10T04:01:15;6.40;;;2.53;;
75297;SDS011;63896;45.990;18.688;2022-10-10T04:04:18;4.07;;;2.30;;
75297;SDS011;63896;45.990;18.688;2022-10-10T04:07:21;3.65;;;2.50;;
75297;SDS011;63896;45.990;18.688;2022-10-10T04:10:24;5.07;;;2.60;;
75297;SDS011;63896;45.990;18.688;2022-10-10T04:13:26;4.03;;;2.80;;
75297;SDS011;63896;45.990;18.688;2022-10-10T04:16:29;4.93;;;3.00;;
75297;SDS011;63896;45.990;18.688;2022-10-10T04:19:32;6.03;;;2.67;;
75297;SDS011;63896;45.990;18.688;2022-10-10T04:22:35;3.63;;;3.10;;
75297;SDS011;63896;45.990;18.688;2022-10-10T04:25:38;4.68;;;2.78;;
75297;SDS011;63896;45.990;18.688;2022-10-10T04:28:40;4.60;;;2.90;;
75297;SDS011;63896;45.990;18.688;2022-10-10T04:31:44;6.03;;;2.78;;
75297;SDS011;63896;45.990;18.688;2022-10-10T04:34:47;5.22;;;2.85;;
75297;SDS011;63896;45.990;18.688;2022-10-10T04:37:50;6.88;;;2.88;;
75297;SDS011;63896;45.990;18.688;2022-10-10T04:40:54;6.75;;;2.72;;
75297;SDS011;63896;45.990;18.688;2022-10-10T04:43:57;6.10;;;2.77;;
75297;SDS011;63896;45.990;18.688;2022-10-10T04:47:02;5.60;;;2.63;;
75297;SDS011;63896;45.990;18.688;2022-10-10T04:50:05;5.30;;;2.88;;
75297;SDS011;63896;45.990;18.688;2022-10-10T04:53:08;5.07;;;2.88;;
75297;SDS011;63896;45.990;18.688;2022-10-10T04:56:11;4.70;;;2.67;;
75297;SDS011;63896;45.990;18.688;2022-10-10T04:59:14;5.60;;;3.00;;
75297;SDS011;63896;45.990;18.688;2022-10-10T05:02:17;6.10;;;2.80;;
75297;SDS011;63896;45.990;18.688;2022-10-10T05:05:19;7.90;;;3.53;;
75297;SDS011;63896;45.990;18.688;2022-10-10T05:08:22;5.38;;;2.70;;
75297;SDS011;63896;45.990;18.688;2022-10-10T05:11:25;5.97;;;2.92;;
75297;SDS011;63896;45.990;18.688;2022-10-10T05:14:28;8.70;;;3.37;;
75297;SDS011;63896;45.990;18.688;2022-10-10T05:17:31;9.75;;;4.50;;
75297;SDS011;63896;45.990;18.688;2022-10-10T05:20:34;8.93;;;4.10;;
75297;SDS011;63896;45.990;18.688;2022-10-10T05:23:37;7.53;;;4.28;;
75297;SDS011;63896;45.990;18.688;2022-10-10T05:26:42;9.57;;;3.95;;
75297;SDS011;63896;45.990;18.688;2022-10-10T05:29:45;13.33;;;4.73;;
75297;SDS011;63896;45.990;18.688;2022-10-10T05:32:47;7.75;;;3.58;;
75297;SDS011;63896;45.990;18.688;2022-10-10T05:35:51;9.75;;;5.20;;
75297;SDS011;63896;45.990;18.688;2022-10-10T05:38:56;11.85;;;6.13;;
75297;SDS011;63896;45.990;18.688;2022-10-10T05:42:01;11.80;;;5.72;;
75297;SDS011;63896;45.990;18.688;2022-10-10T05:45:06;8.00;;;4.30;;
75297;SDS011;63896;45.990;18.688;2022-10-10T05:48:14;13.55;;;3.15;;
75297;SDS011;63896;45.990;18.688;2022-10-10T05:51:19;8.90;;;3.70;;
75297;SDS011;63896;45.990;18.688;2022-10-10T05:54:23;9.48;;;3.17;;
75297;SDS011;63896;45.990;18.688;2022-10-10T05:57:26;9.57;;;3.03;;
75297;SDS011;63896;45.990;18.688;2022-10-10T06:00:32;10.87;;;2.70;;
75297;SDS011;63896;45.990;18.688;2022-10-10T06:03:36;4.03;;;2.58;;
75297;SDS011;63896;45.990;18.688;2022-10-10T06:06:39;5.10;;;2.78;;
75297;SDS011;63896;45.990;18.688;2022-10-10T06:09:44;5.05;;;2.90;;
75297;SDS011;63896;45.990;18.688;2022-10-10T06:12:49;5.88;;;2.60;;
75297;SDS011;63896;45.990;18.688;2022-10-10T06:15:52;5.47;;;2.70;;
75297;SDS011;63896;45.990;18.688;2022-10-10T06:18:56;5.43;;;2.80;;
75297;SDS011;63896;45.990;18.688;2022-10-10T06:21:59;4.47;;;2.72;;
75297;SDS011;63896;45.990;18.688;2022-10-10T06:25:02;5.85;;;3.03;;
75297;SDS011;63896;45.990;18.688;2022-10-10T06:28:20;7.28;;;3.10;;
75297;SDS011;63896;45.990;18.688;2022-10-10T06:31:24;7.60;;;2.50;;
75297;SDS011;63896;45.990;18.688;2022-10-10T06:34:30;3.95;;;3.00;;
75297;SDS011;63896;45.990;18.688;2022-10-10T06:37:33;7.47;;;2.63;;
75297;SDS011;63896;45.990;18.688;2022-10-10T06:40:36;4.35;;;2.53;;
75297;SDS011;63896;45.990;18.688;2022-10-10T06:43:40;4.60;;;2.83;;
75297;SDS011;63896;45.990;18.688;2022-10-10T06:46:43;6.27;;;2.50;;
75297;SDS011;63896;45.990;18.688;2022-10-10T06:49:46;6.47;;;2.70;;
75297;SDS011;63896;45.990;18.688;2022-10-10T06:52:49;4.18;;;2.45;;
75297;SDS011;63896;45.990;18.688;2022-10-10T06:55:55;5.25;;;2.42;;
75297;SDS011;63896;45.990;18.688;2022-10-10T06:58:59;5.70;;;3.15;;
75297;SDS011;63896;45.990;18.688;2022-10-10T07:02:02;4.77;;;2.40;;
75297;SDS011;63896;45.990;18.688;2022-10-10T07:05:05;3.90;;;2.17;;
75297;SDS011;63896;45.990;18.688;2022-10-10T07:08:10;4.72;;;2.50;;
75297;SDS011;63896;45.990;18.688;2022-10-10T07:11:13;6.38;;;2.70;;
75297;SDS011;63896;45.990;18.688;2022-10-10T07:14:16;4.47;;;2.90;;
75297;SDS011;63896;45.990;18.688;2022-10-10T07:17:19;5.10;;;2.60;;
75297;SDS011;63896;45.990;18.688;2022-10-10T07:20:25;10.05;;;2.35;;
75297;SDS011;63896;45.990;18.688;2022-10-10T07:23:28;7.00;;;2.78;;
75297;SDS011;63896;45.990;18.688;2022-10-10T07:26:33;4.88;;;2.58;;
75297;SDS011;63896;45.990;18.688;2022-10-10T07:29:39;4.93;;;2.17;;
75297;SDS011;63896;45.990;18.688;2022-10-10T07:32:42;4.30;;;2.33;;
75297;SDS011;63896;45.990;18.688;2022-10-10T07:35:51;3.67;;;2.42;;
75297;SDS011;63896;45.990;18.688;2022-10-10T07:38:56;6.80;;;2.38;;
75297;SDS011;63896;45.990;18.688;2022-10-10T07:42:02;4.95;;;2.40;;
75297;SDS011;63896;45.990;18.688;2022-10-10T07:45:05;5.85;;;2.47;;
75297;SDS011;63896;45.990;18.688;2022-10-10T07:48:08;6.47;;;2.50;;
75297;SDS011;63896;45.990;18.688;2022-10-10T07:51:11;4.15;;;2.40;;
75297;SDS011;63896;45.990;18.688;2022-10-10T07:54:15;4.82;;;2.65;;
75297;SDS011;63896;45.990;18.688;2022-10-10T07:57:17;5.57;;;2.30;;
75297;SDS011;63896;45.990;18.688;2022-10-10T08:00:28;7.03;;;2.85;;
75297;SDS011;63896;45.990;18.688;2022-10-10T08:03:34;5.47;;;3.00;;
75297;SDS011;63896;45.990;18.688;2022-10-10T08:06:37;4.70;;;2.85;;
75297;SDS011;63896;45.990;18.688;2022-10-10T08:09:41;8.68;;;2.78;;
75297;SDS011;63896;45.990;18.688;2022-10-10T08:12:43;4.00;;;2.60;;
75297;SDS011;63896;45.990;18.688;2022-10-10T08:15:49;4.97;;;2.65;;
75297;SDS011;63896;45.990;18.688;2022-10-10T08:18:52;4.47;;;2.80;;
75297;SDS011;63896;45.990;18.688;2022-10-10T08:21:55;5.95;;;2.85;;
75297;SDS011;63896;45.990;18.688;2022-10-10T08:24:58;6.20;;;3.08;;
75297;SDS011;63896;45.990;18.688;2022-10-10T08:28:01;9.05;;;2.60;;
75297;SDS011;63896;45.990;18.688;2022-10-10T08:31:08;2.60;;;2.40;;
75297;SDS011;63896;45.990;18.688;2022-10-10T08:34:12;3.90;;;2.50;;
75297;SDS011;63896;45.990;18.688;2022-10-10T08:37:15;4.45;;;2.53;;
75297;SDS011;63896;45.990;18.688;2022-10-10T08:40:18;4.30;;;2.53;;
75297;SDS011;63896;45.990;18.688;2022-10-10T08:47:01;5.90;;;2.70;;
75297;SDS011;63896;45.990;18.688;2022-10-10T08:50:15;5.70;;;2.50;;
75297;SDS011;63896;45.990;18.688;2022-10-10T08:53:30;6.95;;;2.72;;
75297;SDS011;63896;45.990;18.688;2022-10-10T08:56:38;4.65;;;3.10;;
75297;SDS011;63896;45.990;18.688;2022-10-10T08:59:42;9.10;;;2.78;;
75297;SDS011;63896;45.990;18.688;2022-10-10T09:02:52;5.25;;;3.15;;
75297;SDS011;63896;45.990;18.688;2022-10-10T09:09:37;4.20;;;2.60;;
75297;SDS011;63896;45.990;18.688;2022-10-10T09:12:58;6.05;;;2.90;;
75297;SDS011;63896;45.990;18.688;2022-10-10T09:16:19;3.95;;;2.95;;
75297;SDS011;63896;45.990;18.688;2022-10-10T09:23:20;10.70;;;3.10;;
75297;SDS011;63896;45.990;18.688;2022-10-10T09:30:13;6.43;;;3.35;;
75297;SDS011;63896;45.990;18.688;2022-10-10T09:33:40;7.50;;;3.42;;
75297;SDS011;63896;45.990;18.688;2022-10-10T09:36:52;8.18;;;3.15;;
75297;SDS011;63896;45.990;18.688;2022-10-10T09:40:02;6.67;;;2.93;;
75297;SDS011;63896;45.990;18.688;2022-10-10T09:43:15;6.53;;;2.92;;
75297;SDS011;63896;45.990;18.688;2022-10-10T09:46:20;7.35;;;3.53;;
75297;SDS011;63896;45.990;18.688;2022-10-10T09:49:23;9.55;;;3.10;;
75297;SDS011;63896;45.990;18.688;2022-10-10T09:56:25;4.13;;;2.83;;
75297;SDS011;63896;45.990;18.688;2022-10-10T09:59:41;8.98;;;3.72;;
75297;SDS011;63896;45.990;18.688;2022-10-10T10:02:50;11.13;;;3.50;;
75297;SDS011;63896;45.990;18.688;2022-10-10T10:06:24;5.20;;;3.50;;
75297;SDS011;63896;45.990;18.688;2022-10-10T10:09:31;6.63;;;3.83;;
75297;SDS011;63896;45.990;18.688;2022-10-10T10:12:39;6.30;;;3.80;;
75297;SDS011;63896;45.990;18.688;2022-10-10T10:15:52;9.23;;;4.10;;
75297;SDS011;63896;45.990;18.688;2022-10-10T10:19:02;5.50;;;3.92;;
75297;SDS011;63896;45.990;18.688;2022-10-10T10:28:40;8.87;;;3.80;;
75297;SDS011;63896;45.990;18.688;2022-10-10T10:41:53;8.10;;;3.80;;
75297;SDS011;63896;45.990;18.688;2022-10-10T10:45:14;5.50;;;4.10;;
75297;SDS011;63896;45.990;18.688;2022-10-10T10:48:26;8.70;;;4.43;;
75297;SDS011;63896;45.990;18.688;2022-10-10T10:51:33;4.90;;;4.32;;
75297;SDS011;63896;45.990;18.688;2022-10-10T11:01:44;8.33;;;4.40;;
75297;SDS011;63896;45.990;18.688;2022-10-10T11:08:35;7.03;;;4.85;;
75297;SDS011;63896;45.990;18.688;2022-10-10T11:15:20;9.38;;;4.70;;
75297;SDS011;63896;45.990;18.688;2022-10-10T11:18:46;7.20;;;4.77;;
75297;SDS011;63896;45.990;18.688;2022-10-10T11:21:55;10.18;;;4.82;;
75297;SDS011;63896;45.990;18.688;2022-10-10T11:25:26;6.85;;;5.15;;
75297;SDS011;63896;45.990;18.688;2022-10-10T11:28:43;11.55;;;4.97;;
75297;SDS011;63896;45.990;18.688;2022-10-10T11:31:54;10.98;;;5.07;;
75297;SDS011;63896;45.990;18.688;2022-10-10T11:44:58;6.65;;;4.80;;
75297;SDS011;63896;45.990;18.688;2022-10-10T11:52:02;10.93;;;5.10;;
75297;SDS011;63896;45.990;18.688;2022-10-10T11:59:23;9.90;;;5.00;;
75297;SDS011;63896;45.990;18.688;2022-10-10T12:02:34;9.38;;;5.55;;
75297;SDS011;63896;45.990;18.688;2022-10-10T12:05:39;9.15;;;5.68;;
75297;SDS011;63896;45.990;18.688;2022-10-10T12:08:55;10.20;;;4.83;;
75297;SDS011;63896;45.990;18.688;2022-10-10T12:12:26;10.18;;;5.95;;
75297;SDS011;63896;45.990;18.688;2022-10-10T12:15:35;13.88;;;5.60;;
75297;SDS011;63896;45.990;18.688;2022-10-10T12:18:49;10.80;;;5.90;;
75297;SDS011;63896;45.990;18.688;2022-10-10T12:28:35;10.35;;;6.05;;
75297;SDS011;63896;45.990;18.688;2022-10-10T12:32:09;10.07;;;5.90;;
75297;SDS011;63896;45.990;18.688;2022-10-10T12:35:52;10.23;;;6.53;;
75297;SDS011;63896;45.990;18.688;2022-10-10T12:42:25;11.37;;;6.40;;
75297;SDS011;63896;45.990;18.688;2022-10-10T12:48:33;11.82;;;7.22;;
75297;SDS011;63896;45.990;18.688;2022-10-10T12:51:38;10.52;;;6.82;;
75297;SDS011;63896;45.990;18.688;2022-10-10T12:54:44;13.18;;;6.70;;
75297;SDS011;63896;45.990;18.688;2022-10-10T12:57:48;11.67;;;7.00;;
75297;SDS011;63896;45.990;18.688;2022-10-10T13:00:54;11.60;;;7.00;;
75297;SDS011;63896;45.990;18.688;2022-10-10T13:04:00;13.07;;;7.40;;
75297;SDS011;63896;45.990;18.688;2022-10-10T13:07:03;17.77;;;7.30;;
75297;SDS011;63896;45.990;18.688;2022-10-10T13:10:19;12.52;;;7.00;;
75297;SDS011;63896;45.990;18.688;2022-10-10T13:13:24;12.90;;;7.20;;
75297;SDS011;63896;45.990;18.688;2022-10-10T13:16:27;14.23;;;7.35;;
75297;SDS011;63896;45.990;18.688;2022-10-10T13:19:39;14.38;;;7.30;;
75297;SDS011;63896;45.990;18.688;2022-10-10T13:22:43;12.30;;;7.20;;
75297;SDS011;63896;45.990;18.688;2022-10-10T13:25:48;11.32;;;7.53;;
75297;SDS011;63896;45.990;18.688;2022-10-10T13:28:52;11.60;;;7.50;;
75297;SDS011;63896;45.990;18.688;2022-10-10T13:32:00;12.40;;;7.97;;
75297;SDS011;63896;45.990;18.688;2022-10-10T13:35:11;15.70;;;8.13;;
75297;SDS011;63896;45.990;18.688;2022-10-10T13:38:18;16.02;;;8.05;;
75297;SDS011;63896;45.990;18.688;2022-10-10T13:41:26;15.23;;;7.40;;
75297;SDS011;63896;45.990;18.688;2022-10-10T13:44:32;13.13;;;8.00;;
75297;SDS011;63896;45.990;18.688;2022-10-10T13:47:50;14.02;;;8.20;;
75297;SDS011;63896;45.990;18.688;2022-10-10T13:51:09;12.15;;;8.48;;
75297;SDS011;63896;45.990;18.688;2022-10-10T13:57:46;13.48;;;8.98;;
75297;SDS011;63896;45.990;18.688;2022-10-10T14:00:56;12.27;;;7.87;;
75297;SDS011;63896;45.990;18.688;2022-10-10T14:07:14;14.13;;;9.32;;
75297;SDS011;63896;45.990;18.688;2022-10-10T14:10:22;13.13;;;8.98;;
75297;SDS011;63896;45.990;18.688;2022-10-10T14:13:28;18.50;;;8.57;;
75297;SDS011;63896;45.990;18.688;2022-10-10T14:16:33;16.70;;;9.00;;
75297;SDS011;63896;45.990;18.688;2022-10-10T14:19:36;15.55;;;8.90;;
75297;SDS011;63896;45.990;18.688;2022-10-10T14:22:39;16.20;;;8.48;;
75297;SDS011;63896;45.990;18.688;2022-10-10T14:25:43;19.55;;;8.90;;
75297;SDS011;63896;45.990;18.688;2022-10-10T14:28:49;15.35;;;9.13;;
75297;SDS011;63896;45.990;18.688;2022-10-10T14:31:52;17.23;;;9.40;;
75297;SDS011;63896;45.990;18.688;2022-10-10T14:34:55;13.07;;;8.68;;
75297;SDS011;63896;45.990;18.688;2022-10-10T14:37:58;12.40;;;8.60;;
75297;SDS011;63896;45.990;18.688;2022-10-10T14:41:01;13.48;;;9.18;;
75297;SDS011;63896;45.990;18.688;2022-10-10T14:44:04;16.10;;;10.18;;
75297;SDS011;63896;45.990;18.688;2022-10-10T14:47:26;16.63;;;9.80;;
75297;SDS011;63896;45.990;18.688;2022-10-10T14:50:34;16.65;;;10.55;;
75297;SDS011;63896;45.990;18.688;2022-10-10T14:53:39;20.88;;;11.00;;
75297;SDS011;63896;45.990;18.688;2022-10-10T14:56:42;22.42;;;10.60;;
75297;SDS011;63896;45.990;18.688;2022-10-10T15:00:10;19.27;;;10.15;;
75297;SDS011;63896;45.990;18.688;2022-10-10T15:03:19;16.30;;;10.20;;
75297;SDS011;63896;45.990;18.688;2022-10-10T15:06:22;15.48;;;10.45;;
75297;SDS011;63896;45.990;18.688;2022-10-10T15:09:25;14.75;;;11.30;;
75297;SDS011;63896;45.990;18.688;2022-10-10T15:12:46;21.27;;;11.15;;
75297;SDS011;63896;45.990;18.688;2022-10-10T15:15:48;17.73;;;10.65;;
75297;SDS011;63896;45.990;18.688;2022-10-10T15:18:51;17.60;;;11.20;;
75297;SDS011;63896;45.990;18.688;2022-10-10T15:21:55;17.58;;;11.35;;
75297;SDS011;63896;45.990;18.688;2022-10-10T15:24:58;16.20;;;11.80;;
75297;SDS011;63896;45.990;18.688;2022-10-10T15:28:01;19.38;;;11.65;;
75297;SDS011;63896;45.990;18.688;2022-10-10T15:31:04;22.90;;;12.85;;
75297;SDS011;63896;45.990;18.688;2022-10-10T15:34:08;17.30;;;12.03;;
75297;SDS011;63896;45.990;18.688;2022-10-10T15:37:11;22.33;;;12.40;;
75297;SDS011;63896;45.990;18.688;2022-10-10T15:40:15;21.88;;;12.43;;
75297;SDS011;63896;45.990;18.688;2022-10-10T15:43:21;16.48;;;12.15;;
75297;SDS011;63896;45.990;18.688;2022-10-10T15:46:24;21.88;;;13.35;;
75297;SDS011;63896;45.990;18.688;2022-10-10T15:49:28;25.57;;;13.33;;
75297;SDS011;63896;45.990;18.688;2022-10-10T15:52:31;18.33;;;13.10;;
75297;SDS011;63896;45.990;18.688;2022-10-10T15:55:39;19.20;;;12.52;;
75297;SDS011;63896;45.990;18.688;2022-10-10T15:58:43;19.27;;;13.23;;
75297;SDS011;63896;45.990;18.688;2022-10-10T16:01:46;36.88;;;20.00;;
75297;SDS011;63896;45.990;18.688;2022-10-10T16:04:49;31.50;;;18.47;;
75297;SDS011;63896;45.990;18.688;2022-10-10T16:07:52;46.30;;;22.23;;
75297;SDS011;63896;45.990;18.688;2022-10-10T16:10:55;61.22;;;33.22;;
75297;SDS011;63896;45.990;18.688;2022-10-10T16:13:58;49.35;;;27.08;;
75297;SDS011;63896;45.990;18.688;2022-10-10T16:17:01;48.85;;;27.83;;
75297;SDS011;63896;45.990;18.688;2022-10-10T16:20:04;52.63;;;28.60;;
75297;SDS011;63896;45.990;18.688;2022-10-10T16:23:07;53.35;;;27.80;;
75297;SDS011;63896;45.990;18.688;2022-10-10T16:26:15;47.78;;;29.75;;
75297;SDS011;63896;45.990;18.688;2022-10-10T16:29:23;52.75;;;29.02;;
75297;SDS011;63896;45.990;18.688;2022-10-10T16:32:25;49.20;;;28.30;;
75297;SDS011;63896;45.990;18.688;2022-10-10T16:35:28;48.00;;;27.90;;
75297;SDS011;63896;45.990;18.688;2022-10-10T16:38:32;55.10;;;29.75;;
75297;SDS011;63896;45.990;18.688;2022-10-10T16:41:35;44.88;;;28.70;;
75297;SDS011;63896;45.990;18.688;2022-10-10T16:44:53;44.97;;;29.65;;
75297;SDS011;63896;45.990;18.688;2022-10-10T16:47:56;66.22;;;40.95;;
75297;SDS011;63896;45.990;18.688;2022-10-10T16:51:06;70.30;;;44.40;;
75297;SDS011;63896;45.990;18.688;2022-10-10T16:54:11;59.78;;;36.17;;
75297;SDS011;63896;45.990;18.688;2022-10-10T16:57:14;56.08;;;34.65;;
75297;SDS011;63896;45.990;18.688;2022-10-10T17:00:17;60.63;;;35.67;;
75297;SDS011;63896;45.990;18.688;2022-10-10T17:03:20;38.33;;;24.90;;
75297;SDS011;63896;45.990;18.688;2022-10-10T17:06:23;38.70;;;24.77;;
75297;SDS011;63896;45.990;18.688;2022-10-10T17:09:26;45.58;;;26.83;;
75297;SDS011;63896;45.990;18.688;2022-10-10T17:12:29;40.80;;;27.05;;
75297;SDS011;63896;45.990;18.688;2022-10-10T17:15:32;51.15;;;28.48;;
75297;SDS011;63896;45.990;18.688;2022-10-10T17:18:35;41.63;;;26.98;;
75297;SDS011;63896;45.990;18.688;2022-10-10T17:21:38;47.70;;;28.57;;
75297;SDS011;63896;45.990;18.688;2022-10-10T17:24:41;47.05;;;29.20;;
75297;SDS011;63896;45.990;18.688;2022-10-10T17:27:44;65.78;;;36.22;;
75297;SDS011;63896;45.990;18.688;2022-10-10T17:30:48;60.38;;;35.50;;
75297;SDS011;63896;45.990;18.688;2022-10-10T17:33:51;46.83;;;28.92;;
75297;SDS011;63896;45.990;18.688;2022-10-10T17:36:56;46.53;;;27.57;;
75297;SDS011;63896;45.990;18.688;2022-10-10T17:39:59;55.15;;;35.13;;
75297;SDS011;63896;45.990;18.688;2022-10-10T17:43:02;60.75;;;39.20;;
75297;SDS011;63896;45.990;18.688;2022-10-10T17:46:07;54.30;;;37.40;;
75297;SDS011;63896;45.990;18.688;2022-10-10T17:49:34;45.63;;;28.75;;
75297;SDS011;63896;45.990;18.688;2022-10-10T17:52:37;54.20;;;36.33;;
75297;SDS011;63896;45.990;18.688;2022-10-10T17:55:41;76.30;;;47.67;;
75297;SDS011;63896;45.990;18.688;2022-10-10T17:58:44;65.03;;;41.15;;
75297;SDS011;63896;45.990;18.688;2022-10-10T18:01:48;64.45;;;37.88;;
75297;SDS011;63896;45.990;18.688;2022-10-10T18:05:08;58.25;;;35.95;;
75297;SDS011;63896;45.990;18.688;2022-10-10T18:08:11;60.70;;;36.33;;
75297;SDS011;63896;45.990;18.688;2022-10-10T18:11:14;51.70;;;31.88;;
75297;SDS011;63896;45.990;18.688;2022-10-10T18:14:21;51.00;;;33.33;;
75297;SDS011;63896;45.990;18.688;2022-10-10T18:17:25;55.42;;;33.05;;
75297;SDS011;63896;45.990;18.688;2022-10-10T18:20:28;49.10;;;31.80;;
75297;SDS011;63896;45.990;18.688;2022-10-10T18:23:30;48.67;;;32.20;;
75297;SDS011;63896;45.990;18.688;2022-10-10T18:26:34;57.28;;;33.45;;
75297;SDS011;63896;45.990;18.688;2022-10-10T18:29:38;55.97;;;32.10;;
75297;SDS011;63896;45.990;18.688;2022-10-10T18:32:41;47.15;;;29.08;;
75297;SDS011;63896;45.990;18.688;2022-10-10T18:35:43;52.03;;;30.05;;
75297;SDS011;63896;45.990;18.688;2022-10-10T18:38:46;49.23;;;29.80;;
75297;SDS011;63896;45.990;18.688;2022-10-10T18:41:49;44.22;;;29.42;;
75297;SDS011;63896;45.990;18.688;2022-10-10T18:44:52;42.53;;;28.27;;
75297;SDS011;63896;45.990;18.688;2022-10-10T18:47:55;46.20;;;29.65;;
75297;SDS011;63896;45.990;18.688;2022-10-10T18:50:59;49.30;;;30.75;;
75297;SDS011;63896;45.990;18.688;2022-10-10T18:54:06;50.37;;;29.77;;
75297;SDS011;63896;45.990;18.688;2022-10-10T18:57:10;44.85;;;30.55;;
75297;SDS011;63896;45.990;18.688;2022-10-10T19:00:13;47.45;;;29.05;;
75297;SDS011;63896;45.990;18.688;2022-10-10T19:03:19;54.75;;;29.60;;
75297;SDS011;63896;45.990;18.688;2022-10-10T19:06:22;41.03;;;27.92;;
75297;SDS011;63896;45.990;18.688;2022-10-10T19:09:25;49.63;;;29.57;;
75297;SDS011;63896;45.990;18.688;2022-10-10T19:12:28;55.15;;;31.77;;
75297;SDS011;63896;45.990;18.688;2022-10-10T19:15:32;61.22;;;34.67;;
75297;SDS011;63896;45.990;18.688;2022-10-10T19:18:35;55.33;;;31.35;;
75297;SDS011;63896;45.990;18.688;2022-10-10T19:21:38;50.45;;;31.48;;
75297;SDS011;63896;45.990;18.688;2022-10-10T19:24:41;55.07;;;34.43;;
75297;SDS011;63896;45.990;18.688;2022-10-10T19:27:44;49.90;;;31.52;;
75297;SDS011;63896;45.990;18.688;2022-10-10T19:30:48;52.58;;;33.20;;
75297;SDS011;63896;45.990;18.688;2022-10-10T19:33:51;51.45;;;31.58;;
75297;SDS011;63896;45.990;18.688;2022-10-10T19:36:54;51.60;;;29.35;;
75297;SDS011;63896;45.990;18.688;2022-10-10T19:39:57;49.53;;;29.67;;
75297;SDS011;63896;45.990;18.688;2022-10-10T19:43:00;51.38;;;29.50;;
75297;SDS011;63896;45.990;18.688;2022-10-10T19:46:07;49.45;;;29.90;;
75297;SDS011;63896;45.990;18.688;2022-10-10T19:49:11;50.28;;;29.63;;
75297;SDS011;63896;45.990;18.688;2022-10-10T19:52:14;48.38;;;29.73;;
75297;SDS011;63896;45.990;18.688;2022-10-10T19:55:17;49.83;;;29.23;;
75297;SDS011;63896;45.990;18.688;2022-10-10T19:58:21;51.03;;;29.92;;
75297;SDS011;63896;45.990;18.688;2022-10-10T20:01:25;49.80;;;31.00;;
75297;SDS011;63896;45.990;18.688;2022-10-10T20:04:31;53.25;;;31.45;;